CDT,Max TemperatureF,Mean TemperatureF,Min TemperatureF,Max Dew PointF,MeanDew PointF,Min DewpointF,Max Humidity, Mean Humidity, Min Humidity, Max Sea Level PressureIn, Mean Sea Level PressureIn, Min Sea Level PressureIn, Max VisibilityMiles, Mean VisibilityMiles, Min VisibilityMiles, Max Wind SpeedMPH, Mean Wind SpeedMPH, Max Gust SpeedMPH,PrecipitationIn, CloudCover, Events, WindDirDegrees
2013-10-1,77,71,64,67,64,62,100,85,69,30.05,30.00,29.96,10,9,5,13,6,17,0.00,6,,202
2013-10-2,76,71,66,70,67,66,100,90,79,30.10,30.05,30.01,10,4,0,14,5,16,0.00,7,Fog,180
2013-10-3,84,75,66,67,65,63,93,67,54,30.02,29.98,29.91,10,10,10,16,11,23,0.00,4,Rain,185
2013-10-4,86,76,66,69,67,63,90,73,55,30.01,29.97,29.93,10,10,10,16,8,21,T,3,,185
2013-10-5,81,71,60,72,70,66,100,87,74,29.98,29.91,29.82,10,8,1,20,8,28,0.62,6,Rain-Thunderstorm,180
2013-10-6,64,57,50,55,46,37,100,73,46,29.86,29.83,29.77,10,10,10,21,8,35,0.04,5,Rain,260
2013-10-7,68,56,44,50,47,42,89,66,42,30.14,29.98,29.83,10,10,6,17,7,22,0.02,4,Rain,284
2013-10-8,73,60,46,51,48,45,100,71,41,30.22,30.18,30.14,10,10,10,13,4,,0.00,0,,156
2013-10-9,74,59,43,54,48,35,93,66,38,30.22,30.16,30.13,10,10,10,12,3,18,0.00,0,,129
2013-10-10,78,64,50,58,54,50,100,72,43,30.17,30.11,30.04,10,10,5,9,3,13,0.00,1,,151
2013-10-11,78,67,56,56,55,53,93,70,47,30.07,30.02,29.96,10,10,10,17,7,22,0.00,2,,157
2013-10-12,72,61,50,62,57,47,87,77,66,30.18,30.05,29.99,10,10,10,13,6,17,T,3,,201
2013-10-13,73,58,42,45,37,32,89,57,24,30.36,30.31,30.20,10,10,10,14,7,24,0.00,0,,356
2013-10-14,70,54,38,47,41,36,86,59,32,30.37,30.26,30.11,10,10,10,13,4,17,0.00,0,,94
2013-10-15,64,60,56,63,59,45,93,78,62,30.08,29.94,29.89,10,6,2,16,9,24,0.09,7,Rain,200
2013-10-16,58,50,42,50,43,41,92,76,59,30.01,29.98,29.92,10,10,10,17,7,24,0.00,3,,281
2013-10-17,60,52,43,46,42,38,96,72,47,29.99,29.95,29.91,10,10,10,16,6,22,0.01,5,Rain,239
2013-10-18,61,53,44,44,42,39,89,71,53,30.01,29.97,29.94,10,10,10,17,8,22,T,1,,260
2013-10-19,56,48,40,43,38,31,100,71,41,29.97,29.95,29.92,10,9,5,18,9,26,0.25,5,Rain,281
2013-10-20,67,54,40,43,40,36,86,62,37,29.98,29.92,29.87,10,10,10,22,12,32,0.00,0,,194
2013-10-21,54,44,33,45,38,29,86,68,50,30.05,29.97,29.90,10,10,10,17,9,22,0.00,2,,267
2013-10-22,52,42,32,45,37,29,100,78,56,30.05,29.91,29.79,10,10,7,25,10,29,0.08,6,Rain,201
2013-10-23,43,39,35,36,33,26,100,77,53,30.11,30.02,29.90,10,8,3,21,10,26,0.00,8,,302
2013-10-24,44,38,31,36,26,19,85,64,43,30.37,30.21,30.09,10,10,10,23,12,29,0.00,8,,299
2013-10-25,51,39,26,27,25,23,84,58,32,30.50,30.39,30.23,10,10,10,12,6,16,0.00,0,,249
2013-10-26,62,47,32,38,30,26,76,58,39,30.21,30.08,29.97,10,10,10,23,11,29,0.00,2,,253
2013-10-27,58,44,29,34,29,25,92,61,30,30.13,30.08,30.04,10,10,10,10,3,16,0.00,0,,236
2013-10-28,64,47,29,40,31,26,92,59,25,30.29,30.21,30.09,10,10,10,9,1,13,0.00,0,,142
2013-10-29,56,47,37,52,46,31,100,81,62,30.30,30.20,30.12,10,6,2,13,6,16,0.05,5,Rain,120
2013-10-30,66,59,52,64,59,52,100,91,81,30.11,30.03,29.89,10,3,0,15,9,23,0.06,8,Fog-Rain,150
2013-10-31,65,57,48,63,58,45,100,94,87,29.86,29.57,29.34,10,7,2,23,13,33,0.74,8,Rain,207